Terminal Aerodrome Forecast
Issued by NWS Newport/Morehead City, NC

Home | Current Version | Previous Version | Text Only | Print | Product List | Glossary On
Versions: 1 2 3 4 5 6 7 8 9 10 11 12 13 14
137
FTUS42 KMHX 010544
TAFEWN
TAF
KEWN 010544Z 0106/0206 21012G22KT P6SM -SHRA SCT015 OVC060
     FM010800 22012G22KT P6SM -SHRA SCT015 OVC025
     FM011100 24008KT P6SM SCT015 BKN025
     FM011400 29008KT P6SM SKC=

USA.gov is the U.S. government's official web portal to all federal, state and local government web resources and services.